sensor_id;sensor_type;location;lat;lon;timestamp;P1;durP1;ratioP1;P2;durP2;ratioP2
13079;SDS011;6606;49.154;9.280;2023-04-26T00:01:34;14.87;;;9.63;;
13079;SDS011;6606;49.154;9.280;2023-04-26T00:04:16;14.40;;;9.43;;
13079;SDS011;6606;49.154;9.280;2023-04-26T00:06:58;13.23;;;9.33;;
13079;SDS011;6606;49.154;9.280;2023-04-26T00:09:40;13.77;;;9.83;;
13079;SDS011;6606;49.154;9.280;2023-04-26T00:12:25;14.17;;;9.83;;
13079;SDS011;6606;49.154;9.280;2023-04-26T00:15:08;13.73;;;9.37;;
13079;SDS011;6606;49.154;9.280;2023-04-26T00:17:53;13.27;;;9.50;;
13079;SDS011;6606;49.154;9.280;2023-04-26T00:20:35;15.03;;;9.60;;
13079;SDS011;6606;49.154;9.280;2023-04-26T00:23:16;17.17;;;10.30;;
13079;SDS011;6606;49.154;9.280;2023-04-26T00:25:58;15.73;;;9.60;;
13079;SDS011;6606;49.154;9.280;2023-04-26T00:28:40;16.20;;;10.43;;
13079;SDS011;6606;49.154;9.280;2023-04-26T00:31:23;15.20;;;9.97;;
13079;SDS011;6606;49.154;9.280;2023-04-26T00:34:05;12.23;;;8.83;;
13079;SDS011;6606;49.154;9.280;2023-04-26T00:36:47;13.57;;;9.87;;
13079;SDS011;6606;49.154;9.280;2023-04-26T00:39:28;13.83;;;8.93;;
13079;SDS011;6606;49.154;9.280;2023-04-26T00:42:11;14.50;;;9.97;;
13079;SDS011;6606;49.154;9.280;2023-04-26T00:44:52;13.77;;;9.43;;
13079;SDS011;6606;49.154;9.280;2023-04-26T00:47:38;14.63;;;9.47;;
13079;SDS011;6606;49.154;9.280;2023-04-26T00:50:20;13.97;;;10.03;;
13079;SDS011;6606;49.154;9.280;2023-04-26T00:53:01;15.50;;;9.47;;
13079;SDS011;6606;49.154;9.280;2023-04-26T00:55:45;15.30;;;10.03;;
13079;SDS011;6606;49.154;9.280;2023-04-26T00:58:28;15.23;;;10.10;;
13079;SDS011;6606;49.154;9.280;2023-04-26T01:01:10;14.47;;;9.33;;
13079;SDS011;6606;49.154;9.280;2023-04-26T01:03:53;13.40;;;9.33;;
13079;SDS011;6606;49.154;9.280;2023-04-26T01:06:36;15.13;;;10.57;;
13079;SDS011;6606;49.154;9.280;2023-04-26T01:09:18;12.97;;;9.40;;
13079;SDS011;6606;49.154;9.280;2023-04-26T01:12:00;18.50;;;10.03;;
13079;SDS011;6606;49.154;9.280;2023-04-26T01:14:43;15.10;;;9.57;;
13079;SDS011;6606;49.154;9.280;2023-04-26T01:17:26;17.30;;;9.93;;
13079;SDS011;6606;49.154;9.280;2023-04-26T01:20:12;14.60;;;10.43;;
13079;SDS011;6606;49.154;9.280;2023-04-26T01:22:55;14.07;;;9.40;;
13079;SDS011;6606;49.154;9.280;2023-04-26T01:25:37;13.90;;;9.87;;
13079;SDS011;6606;49.154;9.280;2023-04-26T01:28:19;17.53;;;10.10;;
13079;SDS011;6606;49.154;9.280;2023-04-26T01:31:04;17.17;;;9.63;;
13079;SDS011;6606;49.154;9.280;2023-04-26T01:33:46;18.10;;;10.83;;
13079;SDS011;6606;49.154;9.280;2023-04-26T01:36:28;14.17;;;9.53;;
13079;SDS011;6606;49.154;9.280;2023-04-26T01:39:14;13.70;;;8.80;;
13079;SDS011;6606;49.154;9.280;2023-04-26T01:41:56;16.03;;;10.30;;
13079;SDS011;6606;49.154;9.280;2023-04-26T01:44:38;18.07;;;10.40;;
13079;SDS011;6606;49.154;9.280;2023-04-26T01:47:20;14.33;;;9.70;;
13079;SDS011;6606;49.154;9.280;2023-04-26T01:50:03;15.27;;;10.53;;
13079;SDS011;6606;49.154;9.280;2023-04-26T01:52:46;24.17;;;10.00;;
13079;SDS011;6606;49.154;9.280;2023-04-26T01:55:30;15.17;;;10.63;;
13079;SDS011;6606;49.154;9.280;2023-04-26T01:58:12;15.77;;;11.10;;
13079;SDS011;6606;49.154;9.280;2023-04-26T02:00:55;13.57;;;9.93;;
13079;SDS011;6606;49.154;9.280;2023-04-26T02:03:37;13.07;;;10.43;;
13079;SDS011;6606;49.154;9.280;2023-04-26T02:06:20;14.80;;;10.40;;
13079;SDS011;6606;49.154;9.280;2023-04-26T02:09:01;14.50;;;10.17;;
13079;SDS011;6606;49.154;9.280;2023-04-26T02:11:46;14.70;;;10.33;;
13079;SDS011;6606;49.154;9.280;2023-04-26T02:14:28;12.37;;;8.97;;
13079;SDS011;6606;49.154;9.280;2023-04-26T02:17:10;17.40;;;11.50;;
13079;SDS011;6606;49.154;9.280;2023-04-26T02:19:53;19.20;;;10.80;;
13079;SDS011;6606;49.154;9.280;2023-04-26T02:22:35;14.93;;;10.37;;
13079;SDS011;6606;49.154;9.280;2023-04-26T02:25:17;12.53;;;9.77;;
13079;SDS011;6606;49.154;9.280;2023-04-26T02:28:01;18.57;;;10.67;;
13079;SDS011;6606;49.154;9.280;2023-04-26T02:30:43;15.53;;;10.60;;
13079;SDS011;6606;49.154;9.280;2023-04-26T02:33:25;17.17;;;9.87;;
13079;SDS011;6606;49.154;9.280;2023-04-26T02:36:06;14.83;;;10.07;;
13079;SDS011;6606;49.154;9.280;2023-04-26T02:38:49;15.67;;;10.43;;
13079;SDS011;6606;49.154;9.280;2023-04-26T02:41:31;14.03;;;10.60;;
13079;SDS011;6606;49.154;9.280;2023-04-26T02:44:15;16.37;;;10.47;;
13079;SDS011;6606;49.154;9.280;2023-04-26T02:46:56;13.53;;;9.73;;
13079;SDS011;6606;49.154;9.280;2023-04-26T02:49:38;15.37;;;10.17;;
13079;SDS011;6606;49.154;9.280;2023-04-26T02:52:20;13.07;;;8.97;;
13079;SDS011;6606;49.154;9.280;2023-04-26T02:55:02;14.53;;;10.03;;
13079;SDS011;6606;49.154;9.280;2023-04-26T02:57:45;13.60;;;8.83;;
13079;SDS011;6606;49.154;9.280;2023-04-26T03:00:28;10.97;;;8.90;;
13079;SDS011;6606;49.154;9.280;2023-04-26T03:03:11;13.77;;;9.50;;
13079;SDS011;6606;49.154;9.280;2023-04-26T03:05:52;15.87;;;9.17;;
13079;SDS011;6606;49.154;9.280;2023-04-26T03:08:34;11.87;;;9.50;;
13079;SDS011;6606;49.154;9.280;2023-04-26T03:11:16;13.43;;;9.20;;
13079;SDS011;6606;49.154;9.280;2023-04-26T03:13:58;13.43;;;8.90;;
13079;SDS011;6606;49.154;9.280;2023-04-26T03:16:44;12.10;;;8.17;;
13079;SDS011;6606;49.154;9.280;2023-04-26T03:19:27;12.87;;;8.97;;
13079;SDS011;6606;49.154;9.280;2023-04-26T03:22:10;12.37;;;8.30;;
13079;SDS011;6606;49.154;9.280;2023-04-26T03:24:55;14.10;;;9.07;;
13079;SDS011;6606;49.154;9.280;2023-04-26T03:27:38;10.90;;;7.97;;
13079;SDS011;6606;49.154;9.280;2023-04-26T03:30:20;14.43;;;8.93;;
13079;SDS011;6606;49.154;9.280;2023-04-26T03:33:03;13.00;;;8.27;;
13079;SDS011;6606;49.154;9.280;2023-04-26T03:35:45;14.90;;;9.50;;
13079;SDS011;6606;49.154;9.280;2023-04-26T03:38:27;15.47;;;9.03;;
13079;SDS011;6606;49.154;9.280;2023-04-26T03:41:09;12.37;;;8.40;;
13079;SDS011;6606;49.154;9.280;2023-04-26T03:43:51;12.53;;;9.17;;
13079;SDS011;6606;49.154;9.280;2023-04-26T03:47:11;15.67;;;8.57;;
13079;SDS011;6606;49.154;9.280;2023-04-26T03:49:38;13.50;;;8.60;;
13079;SDS011;6606;49.154;9.280;2023-04-26T03:52:20;13.80;;;9.73;;
13079;SDS011;6606;49.154;9.280;2023-04-26T03:55:02;13.50;;;9.73;;
13079;SDS011;6606;49.154;9.280;2023-04-26T03:57:44;12.00;;;9.43;;
13079;SDS011;6606;49.154;9.280;2023-04-26T04:00:26;15.90;;;8.77;;
13079;SDS011;6606;49.154;9.280;2023-04-26T04:03:08;16.43;;;10.53;;
13079;SDS011;6606;49.154;9.280;2023-04-26T04:05:51;16.07;;;9.47;;
13079;SDS011;6606;49.154;9.280;2023-04-26T04:08:33;16.00;;;9.97;;
13079;SDS011;6606;49.154;9.280;2023-04-26T04:11:15;19.80;;;10.47;;
13079;SDS011;6606;49.154;9.280;2023-04-26T04:13:57;16.37;;;10.70;;
13079;SDS011;6606;49.154;9.280;2023-04-26T04:16:39;15.23;;;10.17;;
13079;SDS011;6606;49.154;9.280;2023-04-26T04:19:22;16.03;;;10.17;;
13079;SDS011;6606;49.154;9.280;2023-04-26T04:22:06;16.37;;;10.03;;
13079;SDS011;6606;49.154;9.280;2023-04-26T04:24:48;12.53;;;9.17;;
13079;SDS011;6606;49.154;9.280;2023-04-26T04:27:32;19.03;;;11.07;;
13079;SDS011;6606;49.154;9.280;2023-04-26T04:30:14;14.60;;;9.80;;
13079;SDS011;6606;49.154;9.280;2023-04-26T04:32:56;16.83;;;10.43;;
13079;SDS011;6606;49.154;9.280;2023-04-26T04:35:39;16.70;;;9.70;;
13079;SDS011;6606;49.154;9.280;2023-04-26T04:38:23;10.60;;;8.30;;
13079;SDS011;6606;49.154;9.280;2023-04-26T04:41:06;11.37;;;8.63;;
13079;SDS011;6606;49.154;9.280;2023-04-26T04:43:48;14.17;;;10.83;;
13079;SDS011;6606;49.154;9.280;2023-04-26T04:46:30;14.10;;;9.40;;
13079;SDS011;6606;49.154;9.280;2023-04-26T04:49:13;18.97;;;10.33;;
13079;SDS011;6606;49.154;9.280;2023-04-26T04:51:55;15.10;;;9.90;;
13079;SDS011;6606;49.154;9.280;2023-04-26T04:54:40;12.10;;;9.63;;
13079;SDS011;6606;49.154;9.280;2023-04-26T04:57:22;17.87;;;10.17;;
13079;SDS011;6606;49.154;9.280;2023-04-26T05:00:04;14.80;;;10.50;;
13079;SDS011;6606;49.154;9.280;2023-04-26T05:02:53;14.07;;;9.90;;
13079;SDS011;6606;49.154;9.280;2023-04-26T05:05:35;20.03;;;11.20;;
13079;SDS011;6606;49.154;9.280;2023-04-26T05:08:17;14.73;;;10.00;;
13079;SDS011;6606;49.154;9.280;2023-04-26T05:11:01;17.20;;;10.33;;
13079;SDS011;6606;49.154;9.280;2023-04-26T05:13:43;18.47;;;11.20;;
13079;SDS011;6606;49.154;9.280;2023-04-26T05:16:25;16.47;;;10.43;;
13079;SDS011;6606;49.154;9.280;2023-04-26T05:19:08;18.20;;;12.70;;
13079;SDS011;6606;49.154;9.280;2023-04-26T05:21:52;15.50;;;10.87;;
13079;SDS011;6606;49.154;9.280;2023-04-26T05:24:34;19.90;;;12.10;;
13079;SDS011;6606;49.154;9.280;2023-04-26T05:27:17;18.40;;;11.67;;
13079;SDS011;6606;49.154;9.280;2023-04-26T05:30:28;18.77;;;12.63;;
13079;SDS011;6606;49.154;9.280;2023-04-26T05:33:32;19.80;;;11.70;;
13079;SDS011;6606;49.154;9.280;2023-04-26T05:36:29;16.43;;;11.10;;
13079;SDS011;6606;49.154;9.280;2023-04-26T05:39:11;19.77;;;12.13;;
13079;SDS011;6606;49.154;9.280;2023-04-26T05:41:53;17.97;;;11.60;;
13079;SDS011;6606;49.154;9.280;2023-04-26T05:44:36;18.37;;;11.33;;
13079;SDS011;6606;49.154;9.280;2023-04-26T05:47:18;19.60;;;13.23;;
13079;SDS011;6606;49.154;9.280;2023-04-26T05:50:01;21.70;;;14.37;;
13079;SDS011;6606;49.154;9.280;2023-04-26T05:52:43;21.43;;;14.37;;
13079;SDS011;6606;49.154;9.280;2023-04-26T05:55:24;22.17;;;15.80;;
13079;SDS011;6606;49.154;9.280;2023-04-26T05:58:06;17.77;;;12.53;;
13079;SDS011;6606;49.154;9.280;2023-04-26T06:00:50;20.80;;;13.27;;
13079;SDS011;6606;49.154;9.280;2023-04-26T06:03:32;17.37;;;12.07;;
13079;SDS011;6606;49.154;9.280;2023-04-26T06:06:14;17.87;;;12.30;;
13079;SDS011;6606;49.154;9.280;2023-04-26T06:08:55;17.77;;;13.13;;
13079;SDS011;6606;49.154;9.280;2023-04-26T06:11:37;21.73;;;13.83;;
13079;SDS011;6606;49.154;9.280;2023-04-26T06:14:19;18.73;;;13.23;;
13079;SDS011;6606;49.154;9.280;2023-04-26T06:17:03;16.47;;;12.67;;
13079;SDS011;6606;49.154;9.280;2023-04-26T06:19:44;18.00;;;12.33;;
13079;SDS011;6606;49.154;9.280;2023-04-26T06:22:26;18.83;;;13.00;;
13079;SDS011;6606;49.154;9.280;2023-04-26T06:25:08;21.63;;;12.97;;
13079;SDS011;6606;49.154;9.280;2023-04-26T06:27:51;22.33;;;13.23;;
13079;SDS011;6606;49.154;9.280;2023-04-26T06:30:33;19.43;;;13.53;;
13079;SDS011;6606;49.154;9.280;2023-04-26T06:33:17;20.53;;;13.53;;
13079;SDS011;6606;49.154;9.280;2023-04-26T06:35:59;16.57;;;12.13;;
13079;SDS011;6606;49.154;9.280;2023-04-26T06:38:41;17.53;;;11.67;;
13079;SDS011;6606;49.154;9.280;2023-04-26T06:41:22;16.70;;;11.10;;
13079;SDS011;6606;49.154;9.280;2023-04-26T06:44:04;23.17;;;10.87;;
13079;SDS011;6606;49.154;9.280;2023-04-26T06:46:46;13.00;;;9.87;;
13079;SDS011;6606;49.154;9.280;2023-04-26T06:49:30;16.13;;;9.70;;
13079;SDS011;6606;49.154;9.280;2023-04-26T06:52:12;16.83;;;10.73;;
13079;SDS011;6606;49.154;9.280;2023-04-26T06:54:53;15.90;;;9.33;;
13079;SDS011;6606;49.154;9.280;2023-04-26T06:57:35;17.63;;;10.30;;
13079;SDS011;6606;49.154;9.280;2023-04-26T07:00:17;12.20;;;8.53;;
13079;SDS011;6606;49.154;9.280;2023-04-26T07:02:59;15.07;;;7.40;;
13079;SDS011;6606;49.154;9.280;2023-04-26T07:05:42;17.77;;;7.53;;
13079;SDS011;6606;49.154;9.280;2023-04-26T07:08:24;13.77;;;5.90;;
13079;SDS011;6606;49.154;9.280;2023-04-26T07:11:08;12.27;;;6.27;;
13079;SDS011;6606;49.154;9.280;2023-04-26T07:13:50;9.57;;;6.50;;
13079;SDS011;6606;49.154;9.280;2023-04-26T07:16:32;11.53;;;6.27;;
13079;SDS011;6606;49.154;9.280;2023-04-26T07:19:13;8.30;;;5.50;;
13079;SDS011;6606;49.154;9.280;2023-04-26T07:21:56;5.63;;;4.20;;
13079;SDS011;6606;49.154;9.280;2023-04-26T07:24:38;7.82;;;4.38;;
13079;SDS011;6606;49.154;9.280;2023-04-26T07:27:20;7.90;;;4.30;;
13079;SDS011;6606;49.154;9.280;2023-04-26T07:30:02;7.22;;;4.45;;
13079;SDS011;6606;49.154;9.280;2023-04-26T07:32:44;5.43;;;3.85;;
13079;SDS011;6606;49.154;9.280;2023-04-26T07:35:26;9.07;;;4.68;;
13079;SDS011;6606;49.154;9.280;2023-04-26T07:38:09;8.73;;;5.10;;
13079;SDS011;6606;49.154;9.280;2023-04-26T07:40:54;7.85;;;4.10;;
13079;SDS011;6606;49.154;9.280;2023-04-26T07:43:36;7.78;;;3.20;;
13079;SDS011;6606;49.154;9.280;2023-04-26T07:46:18;8.65;;;2.78;;
13079;SDS011;6606;49.154;9.280;2023-04-26T07:49:00;4.63;;;2.70;;
13079;SDS011;6606;49.154;9.280;2023-04-26T07:51:42;10.07;;;3.70;;
13079;SDS011;6606;49.154;9.280;2023-04-26T07:54:26;5.60;;;3.53;;
13079;SDS011;6606;49.154;9.280;2023-04-26T07:57:08;6.65;;;3.15;;
13079;SDS011;6606;49.154;9.280;2023-04-26T07:59:50;5.00;;;2.95;;
13079;SDS011;6606;49.154;9.280;2023-04-26T08:02:31;6.20;;;3.35;;
13079;SDS011;6606;49.154;9.280;2023-04-26T08:05:13;6.55;;;3.15;;
13079;SDS011;6606;49.154;9.280;2023-04-26T08:07:55;6.03;;;2.70;;
13079;SDS011;6606;49.154;9.280;2023-04-26T08:10:40;6.15;;;2.80;;
13079;SDS011;6606;49.154;9.280;2023-04-26T08:13:22;8.10;;;2.90;;
13079;SDS011;6606;49.154;9.280;2023-04-26T08:16:05;4.85;;;2.95;;
13079;SDS011;6606;49.154;9.280;2023-04-26T08:18:46;6.53;;;2.80;;
13079;SDS011;6606;49.154;9.280;2023-04-26T08:21:28;6.88;;;2.95;;
13079;SDS011;6606;49.154;9.280;2023-04-26T08:24:10;5.65;;;2.80;;
13079;SDS011;6606;49.154;9.280;2023-04-26T08:26:56;4.70;;;2.53;;
13079;SDS011;6606;49.154;9.280;2023-04-26T08:29:38;5.55;;;2.80;;
13079;SDS011;6606;49.154;9.280;2023-04-26T08:32:25;5.75;;;2.67;;
13079;SDS011;6606;49.154;9.280;2023-04-26T08:35:42;5.18;;;3.17;;
13079;SDS011;6606;49.154;9.280;2023-04-26T08:38:24;8.07;;;3.10;;
13079;SDS011;6606;49.154;9.280;2023-04-26T08:41:05;6.95;;;3.03;;
13079;SDS011;6606;49.154;9.280;2023-04-26T08:43:53;5.57;;;3.03;;
13079;SDS011;6606;49.154;9.280;2023-04-26T08:46:39;8.37;;;3.43;;
13079;SDS011;6606;49.154;9.280;2023-04-26T08:49:31;6.97;;;3.10;;
13079;SDS011;6606;49.154;9.280;2023-04-26T08:52:20;6.27;;;3.10;;
13079;SDS011;6606;49.154;9.280;2023-04-26T08:55:03;6.67;;;2.93;;
13079;SDS011;6606;49.154;9.280;2023-04-26T08:57:47;5.67;;;3.10;;
13079;SDS011;6606;49.154;9.280;2023-04-26T09:00:32;7.80;;;3.10;;
13079;SDS011;6606;49.154;9.280;2023-04-26T09:03:14;7.10;;;3.30;;
13079;SDS011;6606;49.154;9.280;2023-04-26T09:05:56;8.13;;;3.50;;
13079;SDS011;6606;49.154;9.280;2023-04-26T09:08:39;5.40;;;3.03;;
13079;SDS011;6606;49.154;9.280;2023-04-26T09:11:22;7.07;;;3.10;;
13079;SDS011;6606;49.154;9.280;2023-04-26T09:14:04;5.87;;;3.30;;
13079;SDS011;6606;49.154;9.280;2023-04-26T09:16:47;6.40;;;3.30;;
13079;SDS011;6606;49.154;9.280;2023-04-26T09:19:33;6.10;;;3.20;;
13079;SDS011;6606;49.154;9.280;2023-04-26T09:22:26;6.83;;;3.30;;
13079;SDS011;6606;49.154;9.280;2023-04-26T09:25:08;10.87;;;6.40;;
13079;SDS011;6606;49.154;9.280;2023-04-26T09:27:52;5.80;;;3.37;;
13079;SDS011;6606;49.154;9.280;2023-04-26T09:30:37;10.77;;;3.80;;
13079;SDS011;6606;49.154;9.280;2023-04-26T09:33:21;9.20;;;3.70;;
13079;SDS011;6606;49.154;9.280;2023-04-26T09:36:11;7.10;;;3.77;;
13079;SDS011;6606;49.154;9.280;2023-04-26T09:38:53;7.50;;;4.07;;
13079;SDS011;6606;49.154;9.280;2023-04-26T09:41:42;8.70;;;3.70;;
13079;SDS011;6606;49.154;9.280;2023-04-26T09:44:25;9.27;;;4.30;;
13079;SDS011;6606;49.154;9.280;2023-04-26T09:47:07;7.93;;;4.17;;
13079;SDS011;6606;49.154;9.280;2023-04-26T09:49:52;12.00;;;4.80;;
13079;SDS011;6606;49.154;9.280;2023-04-26T09:52:41;9.30;;;4.37;;
13079;SDS011;6606;49.154;9.280;2023-04-26T09:55:27;10.53;;;4.20;;
13079;SDS011;6606;49.154;9.280;2023-04-26T09:58:09;6.80;;;3.50;;
13079;SDS011;6606;49.154;9.280;2023-04-26T10:00:51;9.97;;;4.23;;
13079;SDS011;6606;49.154;9.280;2023-04-26T10:03:34;9.60;;;4.00;;
13079;SDS011;6606;49.154;9.280;2023-04-26T10:06:18;9.30;;;4.53;;
13079;SDS011;6606;49.154;9.280;2023-04-26T10:09:00;6.50;;;3.40;;
13079;SDS011;6606;49.154;9.280;2023-04-26T10:11:43;6.70;;;3.80;;
13079;SDS011;6606;49.154;9.280;2023-04-26T10:14:25;4.80;;;3.30;;
13079;SDS011;6606;49.154;9.280;2023-04-26T10:17:07;9.73;;;3.90;;
13079;SDS011;6606;49.154;9.280;2023-04-26T10:19:50;6.77;;;3.60;;
13079;SDS011;6606;49.154;9.280;2023-04-26T10:22:38;6.37;;;3.60;;
13079;SDS011;6606;49.154;9.280;2023-04-26T10:25:33;6.87;;;3.10;;
13079;SDS011;6606;49.154;9.280;2023-04-26T10:28:15;5.70;;;3.30;;
13079;SDS011;6606;49.154;9.280;2023-04-26T10:30:58;6.73;;;3.27;;
13079;SDS011;6606;49.154;9.280;2023-04-26T10:33:40;6.25;;;3.38;;
13079;SDS011;6606;49.154;9.280;2023-04-26T10:36:22;7.13;;;3.47;;
13079;SDS011;6606;49.154;9.280;2023-04-26T10:39:18;7.35;;;3.45;;
13079;SDS011;6606;49.154;9.280;2023-04-26T10:45:23;8.82;;;3.33;;
13079;SDS011;6606;49.154;9.280;2023-04-26T10:48:13;9.70;;;3.88;;
13079;SDS011;6606;49.154;9.280;2023-04-26T10:51:06;6.65;;;3.40;;
13079;SDS011;6606;49.154;9.280;2023-04-26T10:53:57;7.13;;;3.22;;
13079;SDS011;6606;49.154;9.280;2023-04-26T10:56:50;5.75;;;3.30;;
13079;SDS011;6606;49.154;9.280;2023-04-26T10:59:33;8.27;;;3.28;;
13079;SDS011;6606;49.154;9.280;2023-04-26T11:02:14;6.07;;;3.10;;
13079;SDS011;6606;49.154;9.280;2023-04-26T11:04:56;6.18;;;3.00;;
13079;SDS011;6606;49.154;9.280;2023-04-26T11:07:38;8.25;;;2.92;;
13079;SDS011;6606;49.154;9.280;2023-04-26T11:10:21;7.60;;;3.17;;
13079;SDS011;6606;49.154;9.280;2023-04-26T11:13:04;5.15;;;2.83;;
13079;SDS011;6606;49.154;9.280;2023-04-26T11:15:46;5.88;;;3.05;;
13079;SDS011;6606;49.154;9.280;2023-04-26T11:18:33;5.50;;;2.95;;
13079;SDS011;6606;49.154;9.280;2023-04-26T11:21:16;4.55;;;2.50;;
13079;SDS011;6606;49.154;9.280;2023-04-26T11:24:01;8.10;;;4.05;;
13079;SDS011;6606;49.154;9.280;2023-04-26T11:26:50;4.82;;;2.88;;
13079;SDS011;6606;49.154;9.280;2023-04-26T11:29:33;7.35;;;2.65;;
13079;SDS011;6606;49.154;9.280;2023-04-26T11:32:15;7.15;;;3.05;;
13079;SDS011;6606;49.154;9.280;2023-04-26T11:34:58;5.07;;;2.88;;
13079;SDS011;6606;49.154;9.280;2023-04-26T11:37:41;5.32;;;3.05;;
13079;SDS011;6606;49.154;9.280;2023-04-26T11:40:29;8.48;;;3.05;;
13079;SDS011;6606;49.154;9.280;2023-04-26T11:43:12;5.70;;;3.00;;
13079;SDS011;6606;49.154;9.280;2023-04-26T11:45:58;7.05;;;3.33;;
13079;SDS011;6606;49.154;9.280;2023-04-26T11:48:40;5.18;;;2.92;;
13079;SDS011;6606;49.154;9.280;2023-04-26T11:51:22;4.88;;;2.78;;
13079;SDS011;6606;49.154;9.280;2023-04-26T11:54:04;6.50;;;2.90;;
13079;SDS011;6606;49.154;9.280;2023-04-26T11:56:46;4.53;;;2.55;;
13079;SDS011;6606;49.154;9.280;2023-04-26T11:59:29;5.10;;;2.30;;
13079;SDS011;6606;49.154;9.280;2023-04-26T12:02:12;6.55;;;2.40;;
13079;SDS011;6606;49.154;9.280;2023-04-26T12:04:57;4.57;;;2.80;;
13079;SDS011;6606;49.154;9.280;2023-04-26T12:07:40;6.18;;;2.83;;
13079;SDS011;6606;49.154;9.280;2023-04-26T12:10:23;8.13;;;3.17;;
13079;SDS011;6606;49.154;9.280;2023-04-26T12:13:07;4.63;;;2.70;;
13079;SDS011;6606;49.154;9.280;2023-04-26T12:15:48;5.68;;;3.10;;
13079;SDS011;6606;49.154;9.280;2023-04-26T12:18:33;4.82;;;2.80;;
13079;SDS011;6606;49.154;9.280;2023-04-26T12:21:14;9.70;;;3.10;;
13079;SDS011;6606;49.154;9.280;2023-04-26T12:23:57;5.40;;;2.50;;
13079;SDS011;6606;49.154;9.280;2023-04-26T12:26:40;6.13;;;2.70;;
13079;SDS011;6606;49.154;9.280;2023-04-26T12:29:23;4.47;;;2.80;;
13079;SDS011;6606;49.154;9.280;2023-04-26T12:32:05;5.28;;;2.58;;
13079;SDS011;6606;49.154;9.280;2023-04-26T12:34:48;5.25;;;2.85;;
13079;SDS011;6606;49.154;9.280;2023-04-26T12:37:30;7.25;;;2.78;;
13079;SDS011;6606;49.154;9.280;2023-04-26T12:40:12;6.90;;;2.73;;
13079;SDS011;6606;49.154;9.280;2023-04-26T12:42:55;5.30;;;2.53;;
13079;SDS011;6606;49.154;9.280;2023-04-26T12:45:37;5.10;;;2.38;;
13079;SDS011;6606;49.154;9.280;2023-04-26T12:48:19;6.47;;;2.83;;
13079;SDS011;6606;49.154;9.280;2023-04-26T12:51:02;7.78;;;2.83;;
13079;SDS011;6606;49.154;9.280;2023-04-26T12:53:44;4.50;;;2.58;;
13079;SDS011;6606;49.154;9.280;2023-04-26T12:56:26;6.05;;;3.17;;
13079;SDS011;6606;49.154;9.280;2023-04-26T12:59:09;5.60;;;2.50;;
13079;SDS011;6606;49.154;9.280;2023-04-26T13:01:51;6.20;;;2.92;;
13079;SDS011;6606;49.154;9.280;2023-04-26T13:04:32;10.52;;;3.00;;
13079;SDS011;6606;49.154;9.280;2023-04-26T13:07:15;6.15;;;3.08;;
13079;SDS011;6606;49.154;9.280;2023-04-26T13:09:57;6.32;;;3.00;;
13079;SDS011;6606;49.154;9.280;2023-04-26T13:12:39;7.03;;;3.40;;
13079;SDS011;6606;49.154;9.280;2023-04-26T13:15:21;5.97;;;2.80;;
13079;SDS011;6606;49.154;9.280;2023-04-26T13:18:03;6.13;;;2.90;;
13079;SDS011;6606;49.154;9.280;2023-04-26T13:20:45;4.97;;;2.70;;
13079;SDS011;6606;49.154;9.280;2023-04-26T13:23:29;6.22;;;3.00;;
13079;SDS011;6606;49.154;9.280;2023-04-26T13:26:10;7.93;;;3.03;;
13079;SDS011;6606;49.154;9.280;2023-04-26T13:28:53;6.00;;;3.03;;
13079;SDS011;6606;49.154;9.280;2023-04-26T13:31:35;5.83;;;2.80;;
13079;SDS011;6606;49.154;9.280;2023-04-26T13:34:19;6.30;;;2.97;;
13079;SDS011;6606;49.154;9.280;2023-04-26T13:37:01;5.80;;;2.60;;
13079;SDS011;6606;49.154;9.280;2023-04-26T13:39:44;6.80;;;2.80;;
13079;SDS011;6606;49.154;9.280;2023-04-26T13:42:26;7.82;;;2.47;;
13079;SDS011;6606;49.154;9.280;2023-04-26T13:45:08;6.78;;;2.55;;
13079;SDS011;6606;49.154;9.280;2023-04-26T13:47:51;5.07;;;3.03;;
13079;SDS011;6606;49.154;9.280;2023-04-26T13:50:33;9.65;;;3.20;;
13079;SDS011;6606;49.154;9.280;2023-04-26T13:53:15;5.35;;;2.65;;
13079;SDS011;6606;49.154;9.280;2023-04-26T13:56:00;6.30;;;3.00;;
13079;SDS011;6606;49.154;9.280;2023-04-26T13:58:42;5.72;;;2.90;;
13079;SDS011;6606;49.154;9.280;2023-04-26T14:01:24;5.65;;;2.90;;
13079;SDS011;6606;49.154;9.280;2023-04-26T14:04:06;5.05;;;2.78;;
13079;SDS011;6606;49.154;9.280;2023-04-26T14:06:48;5.03;;;3.00;;
13079;SDS011;6606;49.154;9.280;2023-04-26T14:09:30;5.05;;;2.42;;
13079;SDS011;6606;49.154;9.280;2023-04-26T14:12:13;3.55;;;2.50;;
13079;SDS011;6606;49.154;9.280;2023-04-26T14:14:55;4.57;;;2.60;;
13079;SDS011;6606;49.154;9.280;2023-04-26T14:17:37;5.43;;;2.90;;
13079;SDS011;6606;49.154;9.280;2023-04-26T14:20:19;6.13;;;2.80;;
13079;SDS011;6606;49.154;9.280;2023-04-26T14:23:01;3.92;;;2.60;;
13079;SDS011;6606;49.154;9.280;2023-04-26T14:25:42;6.33;;;2.60;;
13079;SDS011;6606;49.154;9.280;2023-04-26T14:28:26;5.00;;;2.60;;
13079;SDS011;6606;49.154;9.280;2023-04-26T14:31:08;5.33;;;2.70;;
13079;SDS011;6606;49.154;9.280;2023-04-26T14:33:49;8.60;;;3.03;;
13079;SDS011;6606;49.154;9.280;2023-04-26T14:36:32;5.17;;;2.47;;
13079;SDS011;6606;49.154;9.280;2023-04-26T14:39:13;6.10;;;2.45;;
13079;SDS011;6606;49.154;9.280;2023-04-26T14:41:55;4.72;;;2.78;;
13079;SDS011;6606;49.154;9.280;2023-04-26T14:44:44;4.57;;;2.40;;
13079;SDS011;6606;49.154;9.280;2023-04-26T14:47:33;4.95;;;2.78;;
13079;SDS011;6606;49.154;9.280;2023-04-26T14:50:14;5.75;;;2.60;;
13079;SDS011;6606;49.154;9.280;2023-04-26T14:52:59;5.43;;;2.60;;
13079;SDS011;6606;49.154;9.280;2023-04-26T14:55:40;4.40;;;2.22;;
13079;SDS011;6606;49.154;9.280;2023-04-26T14:58:22;4.78;;;2.22;;
13079;SDS011;6606;49.154;9.280;2023-04-26T15:01:06;3.35;;;2.10;;
13079;SDS011;6606;49.154;9.280;2023-04-26T15:03:48;6.18;;;2.70;;
13079;SDS011;6606;49.154;9.280;2023-04-26T15:06:30;10.77;;;2.50;;
13079;SDS011;6606;49.154;9.280;2023-04-26T15:09:13;5.32;;;2.83;;
13079;SDS011;6606;49.154;9.280;2023-04-26T15:11:55;3.58;;;2.33;;
13079;SDS011;6606;49.154;9.280;2023-04-26T15:14:37;4.50;;;2.60;;
13079;SDS011;6606;49.154;9.280;2023-04-26T15:17:20;6.95;;;2.70;;
13079;SDS011;6606;49.154;9.280;2023-04-26T15:20:02;4.25;;;2.50;;
13079;SDS011;6606;49.154;9.280;2023-04-26T15:22:46;4.82;;;2.30;;
13079;SDS011;6606;49.154;9.280;2023-04-26T15:25:28;4.93;;;2.55;;
13079;SDS011;6606;49.154;9.280;2023-04-26T15:45:55;5.10;;;2.40;;
13079;SDS011;6606;49.154;9.280;2023-04-26T15:52:06;6.43;;;2.57;;
13079;SDS011;6606;49.154;9.280;2023-04-26T15:54:51;4.20;;;2.30;;
13079;SDS011;6606;49.154;9.280;2023-04-26T15:57:33;5.10;;;2.45;;
13079;SDS011;6606;49.154;9.280;2023-04-26T16:00:15;4.68;;;2.17;;
13079;SDS011;6606;49.154;9.280;2023-04-26T16:02:57;4.80;;;2.40;;
13079;SDS011;6606;49.154;9.280;2023-04-26T16:05:40;6.38;;;2.33;;
13079;SDS011;6606;49.154;9.280;2023-04-26T16:08:22;5.07;;;2.50;;
13079;SDS011;6606;49.154;9.280;2023-04-26T16:11:04;5.22;;;2.58;;
13079;SDS011;6606;49.154;9.280;2023-04-26T16:13:46;6.75;;;2.53;;
13079;SDS011;6606;49.154;9.280;2023-04-26T16:16:30;7.93;;;2.80;;
13079;SDS011;6606;49.154;9.280;2023-04-26T16:19:12;4.55;;;2.38;;
13079;SDS011;6606;49.154;9.280;2023-04-26T16:21:57;5.47;;;2.50;;
13079;SDS011;6606;49.154;9.280;2023-04-26T16:24:39;4.13;;;2.10;;
13079;SDS011;6606;49.154;9.280;2023-04-26T16:27:21;6.90;;;2.05;;
13079;SDS011;6606;49.154;9.280;2023-04-26T16:30:03;4.68;;;2.20;;
13079;SDS011;6606;49.154;9.280;2023-04-26T16:32:45;4.90;;;1.95;;
13079;SDS011;6606;49.154;9.280;2023-04-26T16:35:27;3.15;;;2.00;;
13079;SDS011;6606;49.154;9.280;2023-04-26T16:38:10;4.25;;;1.85;;
13079;SDS011;6606;49.154;9.280;2023-04-26T16:40:55;4.80;;;2.27;;
13079;SDS011;6606;49.154;9.280;2023-04-26T16:43:37;6.07;;;2.60;;
13079;SDS011;6606;49.154;9.280;2023-04-26T16:46:19;5.32;;;2.38;;
13079;SDS011;6606;49.154;9.280;2023-04-26T16:49:01;3.85;;;2.10;;
13079;SDS011;6606;49.154;9.280;2023-04-26T16:51:48;4.47;;;2.13;;
13079;SDS011;6606;49.154;9.280;2023-04-26T16:54:34;3.97;;;2.00;;